createdAt,value
2023-03-29T00:07:32.033Z,14.5
2023-03-29T00:27:35.318Z,14.3
2023-03-29T00:37:36.087Z,14.2
2023-03-29T00:47:37.049Z,14.1
2023-03-29T00:57:45.969Z,14.1
2023-03-29T01:07:55.074Z,14.2
2023-03-29T01:18:04.116Z,14.1
2023-03-29T01:28:13.481Z,14
2023-03-29T01:38:22.644Z,13.8
2023-03-29T01:48:32.552Z,14.1
2023-03-29T01:58:36.252Z,14.2
2023-03-29T02:08:38.450Z,14
2023-03-29T02:18:47.996Z,13.9
2023-03-29T02:28:58.746Z,13.7
2023-03-29T02:38:59.125Z,13.7
2023-03-29T02:49:09.247Z,13.5
2023-03-29T02:59:10.588Z,13.4
2023-03-29T03:09:19.565Z,13.5
2023-03-29T03:19:28.411Z,13.5
2023-03-29T03:29:37.270Z,13.2
2023-03-29T03:39:46.081Z,13.2
2023-03-29T03:49:54.860Z,13.2
2023-03-29T04:00:03.725Z,13.1
2023-03-29T04:10:12.584Z,13.1
2023-03-29T04:20:21.279Z,12.9
2023-03-29T04:30:30.230Z,12.9
2023-03-29T04:50:44.912Z,12.9
2023-03-29T05:00:54.186Z,12.9
2023-03-29T05:11:03.944Z,12.6
2023-03-29T05:21:12.886Z,12.6
2023-03-29T05:31:22.018Z,12.5
2023-03-29T05:41:30.768Z,12.4
2023-03-29T05:51:43.403Z,12.6
2023-03-29T06:01:45.064Z,13.1
2023-03-29T06:11:54.220Z,13.1
2023-03-29T06:21:57.932Z,13.1
2023-03-29T06:32:01.776Z,13.1
2023-03-29T06:42:10.166Z,13.1
2023-03-29T06:52:03.666Z,13.1
2023-03-29T07:02:09.789Z,13.1
2023-03-29T07:12:09.074Z,13.9
2023-03-29T07:22:13.076Z,13.7
2023-03-29T07:32:12.943Z,13.8
2023-03-29T07:42:22.335Z,13.9
2023-03-29T07:52:31.328Z,15.2
2023-03-29T08:02:42.291Z,17.7
2023-03-29T08:12:43.126Z,19.1
2023-03-29T08:22:41.255Z,19.1
2023-03-29T08:32:51.607Z,20.4
2023-03-29T08:42:59.388Z,20.9
2023-03-29T08:53:08.298Z,21.3
2023-03-29T09:03:18.204Z,21.7
2023-03-29T09:13:18.674Z,22.4
2023-03-29T09:23:27.639Z,22.4
2023-03-29T09:33:38.942Z,22.7
2023-03-29T09:43:41.712Z,22.6
2023-03-29T09:53:41.829Z,22.4
2023-03-29T10:03:51.033Z,22.4
2023-03-29T10:13:55.401Z,22.6
2023-03-29T10:23:56.154Z,22.7
2023-03-29T10:33:59.202Z,22.9
2023-03-29T10:44:08.201Z,22.2
2023-03-29T10:54:17.812Z,21.6
2023-03-29T11:04:19.235Z,21.8
2023-03-29T11:14:29.407Z,22.2
2023-03-29T11:24:28.547Z,21.8
2023-03-29T11:34:37.562Z,21.4
2023-03-29T11:44:47.866Z,21.1
2023-03-29T11:54:56.374Z,21.1
2023-03-29T12:05:01.634Z,20.9
2023-03-29T12:15:02.190Z,21.2
2023-03-29T12:25:10.995Z,21.4
2023-03-29T12:35:18.979Z,21.3
2023-03-29T12:45:30.645Z,21.8
2023-03-29T12:55:31.304Z,21.5
2023-03-29T13:05:34.978Z,21.3
2023-03-29T13:15:36.115Z,21.3
2023-03-29T13:25:45.527Z,21.1
2023-03-29T13:35:56.213Z,21.3
2023-03-29T13:45:55.162Z,21.6
2023-03-29T13:56:04.345Z,22.3
2023-03-29T14:06:13.175Z,22.6
2023-03-29T14:16:16.384Z,22.4
2023-03-29T14:26:25.277Z,22.4
2023-03-29T14:36:35.021Z,22.6
2023-03-29T14:46:37.917Z,22.5
2023-03-29T14:56:39.981Z,22.6
2023-03-29T15:06:46.187Z,21.3
2023-03-29T15:16:52.207Z,21.1
2023-03-29T15:26:54.022Z,21
2023-03-29T15:36:55.510Z,20.8
2023-03-29T15:47:05.087Z,20.9
2023-03-29T15:57:06.481Z,20.5
2023-03-29T16:07:18.410Z,20.5
2023-03-29T16:17:17.481Z,20.8
2023-03-29T16:27:18.894Z,20.7
2023-03-29T16:37:18.939Z,20.7
2023-03-29T16:47:28.123Z,20.9
2023-03-29T16:57:37.494Z,21
2023-03-29T17:07:47.717Z,20.9
2023-03-29T17:17:51.309Z,20.3
2023-03-29T17:28:01.043Z,20.4
2023-03-29T17:38:01.462Z,20
2023-03-29T17:48:11.434Z,19.9
2023-03-29T17:58:14.169Z,19.9
2023-03-29T18:08:15.049Z,20.1
2023-03-29T18:18:24.607Z,20.1
2023-03-29T18:28:26.919Z,19.3
2023-03-29T18:38:31.247Z,19.1
2023-03-29T18:48:30.504Z,18.6
2023-03-29T18:58:30.872Z,18.3
2023-03-29T19:08:31.139Z,18.3
2023-03-29T19:18:40.208Z,18.4
2023-03-29T19:28:49.183Z,18.2
2023-03-29T19:38:49.605Z,18.1
2023-03-29T19:48:58.368Z,18.3
2023-03-29T19:58:59.093Z,18.3
2023-03-29T20:08:59.318Z,18.1
2023-03-29T20:19:08.303Z,18
2023-03-29T20:29:19.423Z,18.3
2023-03-29T20:49:28.107Z,18.1
2023-03-29T20:59:31.385Z,17.7
2023-03-29T21:09:40.406Z,17.2
2023-03-29T21:19:49.251Z,16.6
2023-03-29T21:29:57.976Z,16.8
2023-03-29T21:40:06.625Z,16.8
2023-03-29T21:50:15.417Z,16.7
2023-03-29T22:00:24.050Z,16.7
2023-03-29T22:10:32.976Z,16.4
2023-03-29T22:20:41.688Z,16.4
2023-03-29T22:30:50.472Z,16.3
2023-03-29T22:40:59.585Z,16.4
2023-03-29T22:51:09.497Z,16.5
2023-03-29T23:01:18.126Z,16.1
2023-03-29T23:11:26.930Z,16
2023-03-29T23:21:35.812Z,16
2023-03-29T23:31:44.544Z,15.9
2023-03-29T23:41:53.345Z,15.8
2023-03-29T23:52:02.147Z,15.6
